sensor_id;sensor_type;location;lat;lon;timestamp;P1;durP1;ratioP1;P2;durP2;ratioP2
10142;SDS011;5112;54.088;13.446;2023-08-01T00:01:22;8.90;;;6.80;;
10142;SDS011;5112;54.088;13.446;2023-08-01T00:11:25;6.43;;;5.87;;
10142;SDS011;5112;54.088;13.446;2023-08-01T00:21:27;6.73;;;5.73;;
10142;SDS011;5112;54.088;13.446;2023-08-01T00:31:33;8.80;;;5.90;;
10142;SDS011;5112;54.088;13.446;2023-08-01T00:41:34;6.03;;;5.53;;
10142;SDS011;5112;54.088;13.446;2023-08-01T00:51:37;6.13;;;5.33;;
10142;SDS011;5112;54.088;13.446;2023-08-01T01:01:39;6.77;;;5.50;;
10142;SDS011;5112;54.088;13.446;2023-08-01T01:11:42;6.40;;;4.90;;
10142;SDS011;5112;54.088;13.446;2023-08-01T01:21:45;6.97;;;4.33;;
10142;SDS011;5112;54.088;13.446;2023-08-01T01:31:48;5.30;;;4.70;;
10142;SDS011;5112;54.088;13.446;2023-08-01T01:41:52;5.57;;;4.57;;
10142;SDS011;5112;54.088;13.446;2023-08-01T01:51:54;6.47;;;4.73;;
10142;SDS011;5112;54.088;13.446;2023-08-01T02:01:57;5.17;;;4.17;;
10142;SDS011;5112;54.088;13.446;2023-08-01T02:11:59;7.10;;;5.23;;
10142;SDS011;5112;54.088;13.446;2023-08-01T02:22:03;8.40;;;4.70;;
10142;SDS011;5112;54.088;13.446;2023-08-01T02:32:05;5.97;;;4.40;;
10142;SDS011;5112;54.088;13.446;2023-08-01T02:42:08;4.67;;;4.20;;
10142;SDS011;5112;54.088;13.446;2023-08-01T02:52:10;4.40;;;4.00;;
10142;SDS011;5112;54.088;13.446;2023-08-01T03:02:13;4.60;;;3.90;;
10142;SDS011;5112;54.088;13.446;2023-08-01T03:12:14;6.87;;;4.00;;
10142;SDS011;5112;54.088;13.446;2023-08-01T03:22:17;4.73;;;4.33;;
10142;SDS011;5112;54.088;13.446;2023-08-01T03:32:19;4.73;;;4.20;;
10142;SDS011;5112;54.088;13.446;2023-08-01T03:42:22;5.80;;;4.80;;
10142;SDS011;5112;54.088;13.446;2023-08-01T03:52:24;4.90;;;4.30;;
10142;SDS011;5112;54.088;13.446;2023-08-01T04:02:27;7.10;;;4.63;;
10142;SDS011;5112;54.088;13.446;2023-08-01T04:12:29;5.10;;;4.60;;
10142;SDS011;5112;54.088;13.446;2023-08-01T04:22:33;4.47;;;4.17;;
10142;SDS011;5112;54.088;13.446;2023-08-01T04:32:35;4.30;;;3.90;;
10142;SDS011;5112;54.088;13.446;2023-08-01T04:42:38;4.37;;;4.00;;
10142;SDS011;5112;54.088;13.446;2023-08-01T04:52:39;4.90;;;4.40;;
10142;SDS011;5112;54.088;13.446;2023-08-01T05:02:42;4.23;;;3.93;;
10142;SDS011;5112;54.088;13.446;2023-08-01T05:12:44;5.73;;;4.33;;
10142;SDS011;5112;54.088;13.446;2023-08-01T05:22:47;4.60;;;4.20;;
10142;SDS011;5112;54.088;13.446;2023-08-01T05:32:48;5.60;;;4.53;;
10142;SDS011;5112;54.088;13.446;2023-08-01T05:42:51;5.40;;;4.20;;
10142;SDS011;5112;54.088;13.446;2023-08-01T05:52:53;4.30;;;3.77;;
10142;SDS011;5112;54.088;13.446;2023-08-01T06:02:56;4.10;;;3.60;;
10142;SDS011;5112;54.088;13.446;2023-08-01T06:12:58;5.70;;;4.40;;
10142;SDS011;5112;54.088;13.446;2023-08-01T06:23:01;3.90;;;3.60;;
10142;SDS011;5112;54.088;13.446;2023-08-01T06:33:02;4.10;;;3.70;;
10142;SDS011;5112;54.088;13.446;2023-08-01T06:43:05;6.33;;;4.20;;
10142;SDS011;5112;54.088;13.446;2023-08-01T06:53:07;4.33;;;3.93;;
10142;SDS011;5112;54.088;13.446;2023-08-01T07:03:10;4.83;;;4.43;;
10142;SDS011;5112;54.088;13.446;2023-08-01T07:13:12;4.43;;;4.03;;
10142;SDS011;5112;54.088;13.446;2023-08-01T07:23:16;5.57;;;5.10;;
10142;SDS011;5112;54.088;13.446;2023-08-01T07:33:17;5.50;;;4.40;;
10142;SDS011;5112;54.088;13.446;2023-08-01T07:43:20;4.47;;;4.17;;
10142;SDS011;5112;54.088;13.446;2023-08-01T07:53:23;5.30;;;4.67;;
10142;SDS011;5112;54.088;13.446;2023-08-01T08:03:26;5.50;;;5.00;;
10142;SDS011;5112;54.088;13.446;2023-08-01T08:13:28;5.43;;;5.03;;
10142;SDS011;5112;54.088;13.446;2023-08-01T08:23:31;5.47;;;4.53;;
10142;SDS011;5112;54.088;13.446;2023-08-01T08:33:33;5.97;;;5.47;;
10142;SDS011;5112;54.088;13.446;2023-08-01T08:43:36;4.77;;;4.37;;
10142;SDS011;5112;54.088;13.446;2023-08-01T08:53:38;4.77;;;4.47;;
10142;SDS011;5112;54.088;13.446;2023-08-01T09:03:43;4.57;;;4.17;;
10142;SDS011;5112;54.088;13.446;2023-08-01T09:13:45;4.93;;;4.43;;
10142;SDS011;5112;54.088;13.446;2023-08-01T09:23:48;4.93;;;4.30;;
10142;SDS011;5112;54.088;13.446;2023-08-01T09:33:50;4.50;;;4.10;;
10142;SDS011;5112;54.088;13.446;2023-08-01T09:43:53;4.90;;;4.37;;
10142;SDS011;5112;54.088;13.446;2023-08-01T09:53:55;6.40;;;5.80;;
10142;SDS011;5112;54.088;13.446;2023-08-01T10:03:58;4.73;;;4.33;;
10142;SDS011;5112;54.088;13.446;2023-08-01T10:14:02;6.37;;;4.63;;
10142;SDS011;5112;54.088;13.446;2023-08-01T10:24:05;4.30;;;4.00;;
10142;SDS011;5112;54.088;13.446;2023-08-01T10:34:12;4.63;;;4.33;;
10142;SDS011;5112;54.088;13.446;2023-08-01T10:44:15;3.90;;;3.60;;
10142;SDS011;5112;54.088;13.446;2023-08-01T10:54:18;3.73;;;3.30;;
10142;SDS011;5112;54.088;13.446;2023-08-01T11:04:23;3.57;;;3.27;;
10142;SDS011;5112;54.088;13.446;2023-08-01T11:14:25;4.80;;;3.00;;
10142;SDS011;5112;54.088;13.446;2023-08-01T11:24:29;3.73;;;2.80;;
10142;SDS011;5112;54.088;13.446;2023-08-01T11:34:38;4.67;;;2.60;;
10142;SDS011;5112;54.088;13.446;2023-08-01T11:44:42;3.57;;;2.60;;
10142;SDS011;5112;54.088;13.446;2023-08-01T11:54:44;3.10;;;2.90;;
10142;SDS011;5112;54.088;13.446;2023-08-01T12:04:48;2.80;;;2.60;;
10142;SDS011;5112;54.088;13.446;2023-08-01T12:14:50;3.80;;;3.50;;
10142;SDS011;5112;54.088;13.446;2023-08-01T12:24:54;3.77;;;3.47;;
10142;SDS011;5112;54.088;13.446;2023-08-01T12:34:55;4.10;;;3.80;;
10142;SDS011;5112;54.088;13.446;2023-08-01T12:44:58;4.80;;;4.40;;
10142;SDS011;5112;54.088;13.446;2023-08-01T12:55:00;5.70;;;4.33;;
10142;SDS011;5112;54.088;13.446;2023-08-01T13:05:03;4.40;;;4.00;;
10142;SDS011;5112;54.088;13.446;2023-08-01T13:15:06;5.87;;;4.00;;
10142;SDS011;5112;54.088;13.446;2023-08-01T13:25:10;4.10;;;3.80;;
10142;SDS011;5112;54.088;13.446;2023-08-01T13:35:11;3.30;;;3.00;;
10142;SDS011;5112;54.088;13.446;2023-08-01T13:45:15;5.20;;;3.77;;
10142;SDS011;5112;54.088;13.446;2023-08-01T13:55:16;4.03;;;3.73;;
10142;SDS011;5112;54.088;13.446;2023-08-01T14:05:20;4.10;;;3.73;;
10142;SDS011;5112;54.088;13.446;2023-08-01T14:15:21;4.03;;;3.73;;
10142;SDS011;5112;54.088;13.446;2023-08-01T14:25:24;3.70;;;2.03;;
10142;SDS011;5112;54.088;13.446;2023-08-01T14:35:26;3.23;;;0.80;;
10142;SDS011;5112;54.088;13.446;2023-08-01T14:45:29;2.73;;;1.40;;
10142;SDS011;5112;54.088;13.446;2023-08-01T14:55:31;2.70;;;1.40;;
10142;SDS011;5112;54.088;13.446;2023-08-01T15:05:34;5.60;;;1.63;;
10142;SDS011;5112;54.088;13.446;2023-08-01T15:15:36;1.43;;;1.30;;
10142;SDS011;5112;54.088;13.446;2023-08-01T15:25:39;2.67;;;1.10;;
10142;SDS011;5112;54.088;13.446;2023-08-01T15:35:41;1.43;;;1.33;;
10142;SDS011;5112;54.088;13.446;2023-08-01T15:45:44;1.40;;;1.30;;
10142;SDS011;5112;54.088;13.446;2023-08-01T15:55:45;2.17;;;1.43;;
10142;SDS011;5112;54.088;13.446;2023-08-01T16:05:55;1.87;;;1.77;;
10142;SDS011;5112;54.088;13.446;2023-08-01T16:15:57;2.17;;;1.97;;
10142;SDS011;5112;54.088;13.446;2023-08-01T16:26:01;3.47;;;2.67;;
10142;SDS011;5112;54.088;13.446;2023-08-01T16:36:04;2.77;;;2.20;;
10142;SDS011;5112;54.088;13.446;2023-08-01T16:46:07;2.53;;;2.33;;
10142;SDS011;5112;54.088;13.446;2023-08-01T16:56:09;3.43;;;2.20;;
10142;SDS011;5112;54.088;13.446;2023-08-01T17:06:12;2.23;;;2.00;;
10142;SDS011;5112;54.088;13.446;2023-08-01T17:16:14;2.07;;;1.97;;
10142;SDS011;5112;54.088;13.446;2023-08-01T17:26:17;1.33;;;1.23;;
10142;SDS011;5112;54.088;13.446;2023-08-01T17:36:19;0.97;;;0.97;;
10142;SDS011;5112;54.088;13.446;2023-08-01T17:46:22;1.23;;;1.03;;
10142;SDS011;5112;54.088;13.446;2023-08-01T17:56:24;1.80;;;1.27;;
10142;SDS011;5112;54.088;13.446;2023-08-01T18:06:28;1.50;;;1.20;;
10142;SDS011;5112;54.088;13.446;2023-08-01T18:16:29;1.50;;;1.40;;
10142;SDS011;5112;54.088;13.446;2023-08-01T18:26:32;2.23;;;1.00;;
10142;SDS011;5112;54.088;13.446;2023-08-01T18:36:35;1.40;;;1.30;;
10142;SDS011;5112;54.088;13.446;2023-08-01T18:46:38;1.50;;;1.30;;
10142;SDS011;5112;54.088;13.446;2023-08-01T18:56:41;2.60;;;1.30;;
10142;SDS011;5112;54.088;13.446;2023-08-01T19:06:44;2.73;;;1.80;;
10142;SDS011;5112;54.088;13.446;2023-08-01T19:16:46;1.73;;;1.47;;
10142;SDS011;5112;54.088;13.446;2023-08-01T19:26:49;5.17;;;1.73;;
10142;SDS011;5112;54.088;13.446;2023-08-01T19:36:50;2.63;;;1.40;;
10142;SDS011;5112;54.088;13.446;2023-08-01T19:46:53;1.37;;;1.27;;
10142;SDS011;5112;54.088;13.446;2023-08-01T19:56:56;1.63;;;1.53;;
10142;SDS011;5112;54.088;13.446;2023-08-01T20:07:00;2.07;;;1.70;;
10142;SDS011;5112;54.088;13.446;2023-08-01T20:17:03;2.13;;;1.90;;
10142;SDS011;5112;54.088;13.446;2023-08-01T20:27:06;1.80;;;1.70;;
10142;SDS011;5112;54.088;13.446;2023-08-01T20:37:10;2.53;;;2.07;;
10142;SDS011;5112;54.088;13.446;2023-08-01T20:47:12;3.00;;;1.93;;
10142;SDS011;5112;54.088;13.446;2023-08-01T20:57:14;2.77;;;2.47;;
10142;SDS011;5112;54.088;13.446;2023-08-01T21:07:17;3.07;;;2.10;;
10142;SDS011;5112;54.088;13.446;2023-08-01T21:17:20;2.17;;;1.97;;
10142;SDS011;5112;54.088;13.446;2023-08-01T21:27:23;3.47;;;2.10;;
10142;SDS011;5112;54.088;13.446;2023-08-01T21:37:24;1.93;;;1.83;;
10142;SDS011;5112;54.088;13.446;2023-08-01T21:47:27;2.30;;;2.10;;
10142;SDS011;5112;54.088;13.446;2023-08-01T21:57:29;2.40;;;2.20;;
10142;SDS011;5112;54.088;13.446;2023-08-01T22:07:32;2.90;;;2.33;;
10142;SDS011;5112;54.088;13.446;2023-08-01T22:17:34;4.23;;;2.43;;
10142;SDS011;5112;54.088;13.446;2023-08-01T22:27:40;3.00;;;2.20;;
10142;SDS011;5112;54.088;13.446;2023-08-01T22:37:42;2.33;;;2.23;;
10142;SDS011;5112;54.088;13.446;2023-08-01T22:47:45;3.43;;;2.30;;
10142;SDS011;5112;54.088;13.446;2023-08-01T22:57:46;3.43;;;2.80;;
10142;SDS011;5112;54.088;13.446;2023-08-01T23:07:50;2.83;;;2.60;;
10142;SDS011;5112;54.088;13.446;2023-08-01T23:17:51;3.20;;;2.50;;
10142;SDS011;5112;54.088;13.446;2023-08-01T23:27:54;2.83;;;2.63;;
10142;SDS011;5112;54.088;13.446;2023-08-01T23:37:57;5.10;;;2.60;;
10142;SDS011;5112;54.088;13.446;2023-08-01T23:48:00;3.23;;;2.33;;
10142;SDS011;5112;54.088;13.446;2023-08-01T23:58:02;2.50;;;2.30;;
